Terminal Aerodrome Forecast
Issued by NWS

Home | Current Version | Previous Version | Text Only | Print | Product List | Glossary On
Versions: 1 2 3 4 5 6 7 8 9 10 11 12 13 14 15 16 17 18 19 20 21 22 23 24 25 26 27 28 29 30 31 32 33 34 35 36 37 38 39 40 41 42 43 44 45
000
FTUS45 KCYS 122300
TAFLAR
TAF
KLAR 122340Z 1300/1324 01010KT P6SM BKN060
     FM130300 02005KT P6SM -SHRA VCTS SCT030 BKN050CB
     FM130600 VRB03KT P6SM SCT050
     FM131200 23004KT 1/2SM FG BKN002
     FM131500 17006KT P6SM SCT040=

USA.gov is the U.S. government's official web portal to all federal, state and local government web resources and services.